createdAt,value
2018-11-02T00:01:20.060Z,3.10
2018-11-02T00:03:48.087Z,2.73
2018-11-02T00:06:16.022Z,2.60
2018-11-02T00:08:43.874Z,2.87
2018-11-02T00:11:11.729Z,2.80
2018-11-02T00:13:40.360Z,2.37
2018-11-02T00:16:08.432Z,3.27
2018-11-02T00:18:36.483Z,2.70
2018-11-02T00:21:04.946Z,2.90
2018-11-02T00:23:32.883Z,2.80
2018-11-02T00:26:00.908Z,3.53
2018-11-02T00:28:28.942Z,4.10
2018-11-02T00:30:56.803Z,3.40
2018-11-02T00:33:24.820Z,3.73
2018-11-02T00:35:52.803Z,4.00
2018-11-02T00:38:20.937Z,3.70
2018-11-02T00:40:48.768Z,3.70
2018-11-02T00:43:16.640Z,4.13
2018-11-02T00:45:44.578Z,3.60
2018-11-02T00:48:12.516Z,3.73
2018-11-02T00:50:40.473Z,4.00
2018-11-02T00:53:08.403Z,4.10
2018-11-02T00:55:36.573Z,3.57
2018-11-02T00:58:04.836Z,4.00
2018-11-02T01:00:32.892Z,3.93
2018-11-02T01:03:00.754Z,4.30
2018-11-02T01:05:29.108Z,4.10
2018-11-02T01:07:57.194Z,4.20
2018-11-02T01:10:25.112Z,4.60
2018-11-02T01:12:52.979Z,4.70
2018-11-02T01:15:21.813Z,4.23
2018-11-02T01:17:51.010Z,4.10
2018-11-02T01:20:18.885Z,3.93
2018-11-02T01:22:47.025Z,3.73
2018-11-02T01:25:15.146Z,4.03
2018-11-02T01:27:43.051Z,3.80
2018-11-02T01:30:10.969Z,4.03
2018-11-02T01:32:38.796Z,3.80
2018-11-02T01:35:07.952Z,3.87
2018-11-02T01:37:35.983Z,3.70
2018-11-02T01:40:04.601Z,3.83
2018-11-02T01:42:33.359Z,4.30
2018-11-02T01:45:01.147Z,4.33
2018-11-02T01:47:29.051Z,4.13
2018-11-02T01:49:57.001Z,4.10
2018-11-02T01:52:24.891Z,3.73
2018-11-02T01:54:52.934Z,3.60
2018-11-02T01:57:20.844Z,3.50
2018-11-02T01:59:48.685Z,3.43
2018-11-02T02:02:16.684Z,3.70
2018-11-02T02:04:44.435Z,3.73
2018-11-02T02:07:12.355Z,3.67
2018-11-02T02:09:40.452Z,3.40
2018-11-02T02:12:08.668Z,3.13
2018-11-02T02:14:36.595Z,3.03
2018-11-02T02:17:04.833Z,3.03
2018-11-02T02:19:32.830Z,3.30
2018-11-02T02:22:00.755Z,3.57
2018-11-02T02:24:28.719Z,3.80
2018-11-02T02:26:56.798Z,4.13
2018-11-02T02:29:24.852Z,3.60
2018-11-02T02:31:52.747Z,3.43
2018-11-02T02:34:20.841Z,3.43
2018-11-02T02:36:48.753Z,3.30
2018-11-02T02:39:17.188Z,3.67
2018-11-02T02:41:45.496Z,3.90
2018-11-02T02:44:13.500Z,3.30
2018-11-02T02:46:41.457Z,3.37
2018-11-02T02:49:09.374Z,2.90
2018-11-02T02:51:37.305Z,3.60
2018-11-02T02:54:05.623Z,2.70
2018-11-02T02:56:34.283Z,3.70
2018-11-02T02:59:02.445Z,3.53
2018-11-02T03:01:30.424Z,3.60
2018-11-02T03:03:58.264Z,3.80
2018-11-02T03:06:26.216Z,3.50
2018-11-02T03:08:54.464Z,3.07
2018-11-02T03:11:22.605Z,3.13
2018-11-02T03:13:51.086Z,2.80
2018-11-02T03:16:19.756Z,2.40
2018-11-02T03:18:47.825Z,2.43
2018-11-02T03:21:15.807Z,2.67
2018-11-02T03:23:43.655Z,2.70
2018-11-02T03:26:11.550Z,2.70
2018-11-02T03:28:39.389Z,3.03
2018-11-02T03:31:07.436Z,2.77
2018-11-02T03:33:35.470Z,3.17
2018-11-02T03:36:03.540Z,2.87
2018-11-02T03:38:31.397Z,2.60
2018-11-02T03:40:59.540Z,2.10
2018-11-02T03:43:27.601Z,2.53
2018-11-02T03:45:55.517Z,2.70
2018-11-02T03:48:23.419Z,2.47
2018-11-02T03:50:51.436Z,2.17
2018-11-02T03:53:19.184Z,2.20
2018-11-02T03:55:47.129Z,1.70
2018-11-02T03:58:15.174Z,2.53
2018-11-02T04:00:43.046Z,2.80
2018-11-02T04:03:10.788Z,2.80
2018-11-02T04:05:39.094Z,2.30
2018-11-02T04:08:07.255Z,1.93
2018-11-02T04:10:35.283Z,2.43
2018-11-02T04:13:03.320Z,1.90
2018-11-02T04:15:31.329Z,1.50
2018-11-02T04:17:59.272Z,2.30
2018-11-02T04:20:27.070Z,2.03
2018-11-02T04:22:55.194Z,1.93
2018-11-02T04:25:23.093Z,2.17
2018-11-02T04:27:51.202Z,2.40
2018-11-02T04:30:19.335Z,1.80
2018-11-02T04:32:47.383Z,3.00
2018-11-02T04:35:15.134Z,2.70
2018-11-02T04:37:43.984Z,2.30
2018-11-02T04:40:11.865Z,2.73
2018-11-02T04:42:40.225Z,2.23
2018-11-02T04:45:08.250Z,2.50
2018-11-02T04:47:36.248Z,2.20
2018-11-02T04:50:05.078Z,2.00
2018-11-02T04:52:33.509Z,2.00
2018-11-02T04:55:01.512Z,1.67
2018-11-02T04:57:29.472Z,1.83
2018-11-02T04:59:57.452Z,1.80
2018-11-02T05:02:25.331Z,1.37
2018-11-02T05:04:53.290Z,1.30
2018-11-02T05:07:21.399Z,1.40
2018-11-02T05:09:49.385Z,2.23
2018-11-02T05:12:17.297Z,2.50
2018-11-02T05:14:45.573Z,1.93
2018-11-02T05:17:13.810Z,1.80
2018-11-02T05:19:41.741Z,1.93
2018-11-02T05:22:09.893Z,2.20
2018-11-02T05:24:38.520Z,2.87
2018-11-02T05:27:06.518Z,2.90
2018-11-02T05:29:34.437Z,5.23
2018-11-02T05:32:02.361Z,2.53
2018-11-02T05:34:30.215Z,2.27
2018-11-02T05:36:57.954Z,1.97
2018-11-02T05:39:26.214Z,2.77
2018-11-02T05:41:53.964Z,2.50
2018-11-02T05:44:22.350Z,2.93
2018-11-02T05:46:50.480Z,2.73
2018-11-02T05:49:19.257Z,3.83
2018-11-02T05:51:47.125Z,12.80
2018-11-02T05:54:15.162Z,5.20
2018-11-02T05:56:42.970Z,1.90
2018-11-02T05:59:11.597Z,2.43
2018-11-02T06:01:40.009Z,2.30
2018-11-02T06:04:08.193Z,2.40
2018-11-02T06:06:37.694Z,3.00
2018-11-02T06:09:06.979Z,2.10
2018-11-02T06:11:35.554Z,2.50
2018-11-02T06:14:03.753Z,2.07
2018-11-02T06:16:31.711Z,1.60
2018-11-02T06:18:59.741Z,1.77
2018-11-02T06:21:28.156Z,1.73
2018-11-02T06:23:56.219Z,1.90
2018-11-02T06:26:24.181Z,2.60
2018-11-02T06:28:52.078Z,2.50
2018-11-02T06:31:20.212Z,1.80
2018-11-02T06:33:48.278Z,2.03
2018-11-02T06:36:16.186Z,1.80
2018-11-02T06:38:44.185Z,2.20
2018-11-02T06:41:12.190Z,1.70
2018-11-02T06:43:40.362Z,1.90
2018-11-02T06:46:08.213Z,1.90
2018-11-02T06:48:36.255Z,2.00
2018-11-02T06:51:04.209Z,2.00
2018-11-02T06:53:32.061Z,1.90
2018-11-02T06:56:00.243Z,2.00
2018-11-02T06:58:28.876Z,1.70
2018-11-02T07:00:56.800Z,1.43
2018-11-02T07:03:25.024Z,1.43
2018-11-02T07:05:53.159Z,1.60
2018-11-02T07:08:21.759Z,1.57
2018-11-02T07:10:50.253Z,1.60
2018-11-02T07:13:18.442Z,1.73
2018-11-02T07:15:47.777Z,1.73
2018-11-02T07:18:15.575Z,2.10
2018-11-02T07:20:43.507Z,2.30
2018-11-02T07:23:11.425Z,2.07
2018-11-02T07:25:39.309Z,2.03
2018-11-02T07:28:08.393Z,2.20
2018-11-02T07:30:36.462Z,2.10
2018-11-02T07:33:04.577Z,1.60
2018-11-02T07:35:33.264Z,2.20
2018-11-02T07:38:01.932Z,1.70
2018-11-02T07:40:29.805Z,1.90
2018-11-02T07:42:57.938Z,2.00
2018-11-02T07:45:26.139Z,1.97
2018-11-02T07:47:53.980Z,2.00
2018-11-02T07:50:22.104Z,1.73
2018-11-02T07:52:50.696Z,1.80
2018-11-02T07:55:18.601Z,2.00
2018-11-02T07:57:46.453Z,1.90
2018-11-02T08:00:15.945Z,1.73
2018-11-02T08:02:45.431Z,1.90
2018-11-02T08:05:14.366Z,1.80
2018-11-02T08:07:42.534Z,1.70
2018-11-02T08:10:10.737Z,1.80
2018-11-02T08:12:39.542Z,1.77
2018-11-02T08:15:09.521Z,1.70
2018-11-02T08:17:38.233Z,1.60
2018-11-02T08:20:06.943Z,1.80
2018-11-02T08:22:35.644Z,2.00
2018-11-02T08:25:04.079Z,1.87
2018-11-02T08:27:31.993Z,1.60
2018-11-02T08:29:59.857Z,1.67
2018-11-02T08:32:28.163Z,1.80
2018-11-02T08:34:56.141Z,1.50
2018-11-02T08:37:24.087Z,2.17
2018-11-02T08:39:52.225Z,2.00
2018-11-02T08:42:20.184Z,1.40
2018-11-02T08:44:48.148Z,1.63
2018-11-02T08:47:16.129Z,1.40
2018-11-02T08:49:44.334Z,1.60
2018-11-02T08:52:12.681Z,1.57
2018-11-02T08:54:40.678Z,1.63
2018-11-02T08:57:08.889Z,1.30
2018-11-02T08:59:36.837Z,1.93
2018-11-02T09:02:05.013Z,1.90
2018-11-02T09:04:33.345Z,1.67
2018-11-02T09:07:01.628Z,1.63
2018-11-02T09:09:29.896Z,1.50
2018-11-02T09:11:57.791Z,1.20
2018-11-02T09:14:26.191Z,1.40
2018-11-02T09:16:55.233Z,1.40
2018-11-02T09:19:23.860Z,1.70
2018-11-02T09:21:52.360Z,1.60
2018-11-02T09:24:22.420Z,1.50
2018-11-02T09:26:52.153Z,1.60
2018-11-02T09:29:20.794Z,2.10
2018-11-02T09:31:49.863Z,1.50
2018-11-02T09:34:18.554Z,1.87
2018-11-02T09:36:46.837Z,1.80
2018-11-02T09:39:14.873Z,1.53
2018-11-02T09:41:43.485Z,1.70
2018-11-02T09:44:11.662Z,1.77
2018-11-02T09:46:39.832Z,1.63
2018-11-02T09:49:07.792Z,1.60
2018-11-02T09:51:37.466Z,1.03
2018-11-02T09:54:05.445Z,1.20
2018-11-02T09:56:34.591Z,1.30
2018-11-02T09:59:02.709Z,1.30
2018-11-02T10:01:30.684Z,1.17
2018-11-02T10:03:59.851Z,1.07
2018-11-02T10:06:27.689Z,1.40
2018-11-02T10:08:55.970Z,1.53
2018-11-02T10:11:25.206Z,0.90
2018-11-02T10:13:54.606Z,1.27
2018-11-02T10:16:22.616Z,1.10
2018-11-02T10:18:51.044Z,1.20
2018-11-02T10:21:19.550Z,1.33
2018-11-02T10:23:48.091Z,1.77
2018-11-02T10:26:16.301Z,1.07
2018-11-02T10:28:44.815Z,1.07
2018-11-02T10:31:12.736Z,1.07
2018-11-02T10:33:40.788Z,1.20
2018-11-02T10:36:09.381Z,1.00
2018-11-02T10:38:39.676Z,1.10
2018-11-02T10:41:08.852Z,1.10
2018-11-02T10:43:37.350Z,0.67
2018-11-02T10:46:05.578Z,1.10
2018-11-02T10:48:34.130Z,1.30
2018-11-02T10:51:03.539Z,1.03
2018-11-02T10:53:32.108Z,0.90
2018-11-02T10:56:00.122Z,0.73
2018-11-02T10:58:28.429Z,0.90
2018-11-02T11:01:02.474Z,0.80
2018-11-02T11:03:30.227Z,0.83
2018-11-02T11:05:58.074Z,0.80
2018-11-02T11:08:26.107Z,1.30
2018-11-02T11:10:54.357Z,1.33
2018-11-02T11:13:23.160Z,1.03
2018-11-02T11:15:52.220Z,1.10
2018-11-02T11:18:20.113Z,0.80
2018-11-02T11:20:48.221Z,0.90
2018-11-02T11:23:16.011Z,0.90
2018-11-02T11:25:44.064Z,1.03
2018-11-02T11:28:12.104Z,0.80
2018-11-02T11:30:40.078Z,1.07
2018-11-02T11:33:09.213Z,1.10
2018-11-02T11:35:37.164Z,0.70
2018-11-02T11:38:05.686Z,0.80
2018-11-02T11:40:33.777Z,1.40
2018-11-02T11:43:01.546Z,1.17
2018-11-02T11:45:29.587Z,1.17
2018-11-02T11:47:58.012Z,1.40
2018-11-02T11:50:26.095Z,1.73
2018-11-02T11:52:54.656Z,1.37
2018-11-02T11:55:22.573Z,1.23
2018-11-02T11:57:50.529Z,1.00
2018-11-02T12:00:19.941Z,0.90
2018-11-02T12:02:49.352Z,1.30
2018-11-02T12:05:19.140Z,1.30
2018-11-02T12:07:49.301Z,0.90
2018-11-02T12:10:22.597Z,1.30
2018-11-02T12:12:50.573Z,1.40
2018-11-02T12:15:20.333Z,2.67
2018-11-02T12:17:48.964Z,1.27
2018-11-02T12:20:20.319Z,1.30
2018-11-02T12:22:49.682Z,1.27
2018-11-02T12:25:18.177Z,1.60
2018-11-02T12:27:46.677Z,1.60
2018-11-02T12:30:15.895Z,1.83
2018-11-02T12:32:43.931Z,1.30
2018-11-02T12:35:13.530Z,3.30
2018-11-02T12:37:41.589Z,2.80
2018-11-02T12:40:12.604Z,2.00
2018-11-02T12:42:41.890Z,1.47
2018-11-02T12:45:11.716Z,1.57
2018-11-02T12:47:40.257Z,1.20
2018-11-02T12:50:20.654Z,1.40
2018-11-02T12:52:49.919Z,1.27
2018-11-02T12:55:18.607Z,1.27
2018-11-02T12:57:46.706Z,2.10
2018-11-02T13:00:17.373Z,1.90
2018-11-02T13:02:46.258Z,1.30
2018-11-02T13:05:14.260Z,1.10
2018-11-02T13:07:44.355Z,1.20
2018-11-02T13:10:14.042Z,1.50
2018-11-02T13:12:42.694Z,1.70
2018-11-02T13:15:12.873Z,2.00
2018-11-02T13:17:41.836Z,1.33
2018-11-02T13:20:10.480Z,1.70
2018-11-02T13:22:39.571Z,1.33
2018-11-02T13:25:09.691Z,1.20
2018-11-02T13:27:38.797Z,1.50
2018-11-02T13:30:07.638Z,1.80
2018-11-02T13:32:36.310Z,1.63
2018-11-02T13:35:04.777Z,1.10
2018-11-02T13:37:33.512Z,1.50
2018-11-02T13:40:01.590Z,1.60
2018-11-02T13:42:29.864Z,2.90
2018-11-02T13:44:57.797Z,3.43
2018-11-02T13:47:25.920Z,1.50
2018-11-02T13:49:54.017Z,2.90
2018-11-02T13:52:22.862Z,1.43
2018-11-02T13:54:50.940Z,1.40
2018-11-02T13:57:20.049Z,1.10
2018-11-02T13:59:47.892Z,1.40
2018-11-02T14:02:16.371Z,1.27
2018-11-02T14:04:44.427Z,1.20
2018-11-02T14:07:12.546Z,1.40
2018-11-02T14:09:40.593Z,1.37
2018-11-02T14:12:09.036Z,1.40
2018-11-02T14:14:37.348Z,1.30
2018-11-02T14:17:05.975Z,1.57
2018-11-02T14:19:33.758Z,1.27
2018-11-02T14:22:01.811Z,1.60
2018-11-02T14:24:29.808Z,1.30
2018-11-02T14:26:57.733Z,1.30
2018-11-02T14:29:25.785Z,1.30
2018-11-02T14:31:53.945Z,1.13
2018-11-02T14:34:22.018Z,1.20
2018-11-02T14:36:49.978Z,1.10
2018-11-02T14:39:17.983Z,1.40
2018-11-02T14:41:46.108Z,1.27
2018-11-02T14:44:13.995Z,1.20
2018-11-02T14:46:41.911Z,1.10
2018-11-02T14:49:09.868Z,1.27
2018-11-02T14:51:37.643Z,1.07
2018-11-02T14:54:05.648Z,1.17
2018-11-02T14:56:34.110Z,1.40
2018-11-02T14:59:02.235Z,1.17
2018-11-02T15:01:30.132Z,1.00
2018-11-02T15:03:58.521Z,0.77
2018-11-02T15:06:26.479Z,1.03
2018-11-02T15:08:55.279Z,1.50
2018-11-02T15:11:23.600Z,1.00
2018-11-02T15:13:54.820Z,1.00
2018-11-02T15:16:23.144Z,1.40
2018-11-02T15:18:51.000Z,1.23
2018-11-02T15:21:19.614Z,1.13
2018-11-02T15:23:54.258Z,1.20
2018-11-02T15:26:22.543Z,1.47
2018-11-02T15:28:51.265Z,1.70
2018-11-02T15:31:19.605Z,2.50
2018-11-02T15:33:48.237Z,1.70
2018-11-02T15:36:17.571Z,2.30
2018-11-02T15:38:45.913Z,1.10
2018-11-02T15:41:17.114Z,1.47
2018-11-02T15:43:45.731Z,1.20
2018-11-02T15:46:14.793Z,1.13
2018-11-02T15:48:42.768Z,1.27
2018-11-02T15:51:11.087Z,1.63
2018-11-02T15:53:39.623Z,1.80
2018-11-02T15:56:07.972Z,1.53
2018-11-02T15:58:36.095Z,1.50
2018-11-02T16:01:04.832Z,1.50
2018-11-02T16:03:32.679Z,1.00
2018-11-02T16:06:02.183Z,1.60
2018-11-02T16:08:30.700Z,1.50
2018-11-02T16:10:59.248Z,1.90
2018-11-02T16:13:27.639Z,1.90
2018-11-02T16:15:55.970Z,1.67
2018-11-02T16:18:24.294Z,2.00
2018-11-02T16:20:53.240Z,2.40
2018-11-02T16:23:21.595Z,2.17
2018-11-02T16:25:50.385Z,1.20
2018-11-02T16:28:18.628Z,1.23
2018-11-02T16:30:47.416Z,1.40
2018-11-02T16:33:15.685Z,1.70
2018-11-02T16:35:44.036Z,2.80
2018-11-02T16:38:11.962Z,3.90
2018-11-02T16:40:40.280Z,5.13
2018-11-02T16:43:08.280Z,5.90
2018-11-02T16:45:36.564Z,6.57
2018-11-02T16:48:05.343Z,4.10
2018-11-02T16:50:33.739Z,2.70
2018-11-02T16:53:01.823Z,3.93
2018-11-02T16:55:30.416Z,4.20
2018-11-02T16:58:01.529Z,7.67
2018-11-02T17:00:29.689Z,9.50
2018-11-02T17:02:57.809Z,6.50
2018-11-02T17:05:26.095Z,4.97
2018-11-02T17:07:53.987Z,6.23
2018-11-02T17:10:22.036Z,7.80
2018-11-02T17:12:50.253Z,4.97
2018-11-02T17:15:18.101Z,3.77
2018-11-02T17:17:46.069Z,4.73
2018-11-02T17:20:15.195Z,4.13
2018-11-02T17:22:43.124Z,3.57
2018-11-02T17:25:11.681Z,4.27
2018-11-02T17:27:40.819Z,4.53
2018-11-02T17:30:11.735Z,4.10
2018-11-02T17:32:40.341Z,3.77
2018-11-02T17:35:09.644Z,2.30
2018-11-02T17:37:37.735Z,3.17
2018-11-02T17:40:07.349Z,2.73
2018-11-02T17:42:35.989Z,9.07
2018-11-02T17:45:04.276Z,12.80
2018-11-02T17:47:32.469Z,15.10
2018-11-02T17:50:01.373Z,12.07
2018-11-02T17:52:30.010Z,8.10
2018-11-02T17:54:58.184Z,7.80
2018-11-02T17:57:26.303Z,9.17
2018-11-02T17:59:54.706Z,9.97
2018-11-02T18:02:22.829Z,8.63
2018-11-02T18:04:51.381Z,7.80
2018-11-02T18:07:19.843Z,7.03
2018-11-02T18:09:47.767Z,9.17
2018-11-02T18:12:16.323Z,9.10
2018-11-02T18:14:45.259Z,8.93
2018-11-02T18:17:13.133Z,8.50
2018-11-02T18:19:41.092Z,7.53
2018-11-02T18:22:09.224Z,6.17
2018-11-02T18:24:37.157Z,6.50
2018-11-02T18:27:06.204Z,6.70
2018-11-02T18:29:34.407Z,7.30
2018-11-02T18:32:02.497Z,7.80
2018-11-02T18:34:31.180Z,7.30
2018-11-02T18:37:00.950Z,7.17
2018-11-02T18:39:28.926Z,6.03
2018-11-02T18:41:56.815Z,10.57
2018-11-02T18:44:25.073Z,27.33
2018-11-02T18:46:53.415Z,17.20
2018-11-02T18:49:22.143Z,14.20
2018-11-02T18:51:50.062Z,11.97
2018-11-02T18:54:17.883Z,9.60
2018-11-02T18:56:46.456Z,8.80
2018-11-02T18:59:16.153Z,7.60
2018-11-02T19:01:44.100Z,6.43
2018-11-02T19:04:12.222Z,5.13
2018-11-02T19:06:40.072Z,6.10
2018-11-02T19:09:10.119Z,6.67
2018-11-02T19:11:38.282Z,7.33
2018-11-02T19:14:06.930Z,9.13
2018-11-02T19:16:36.458Z,7.90
2018-11-02T19:19:05.200Z,9.07
2018-11-02T19:21:34.352Z,8.90
2018-11-02T19:24:02.315Z,7.97
2018-11-02T19:26:30.990Z,6.87
2018-11-02T19:28:59.215Z,7.10
2018-11-02T19:31:27.200Z,7.00
2018-11-02T19:33:55.275Z,8.00
2018-11-02T19:36:23.465Z,8.40
2018-11-02T19:38:51.638Z,9.10
2018-11-02T19:41:19.687Z,7.70
2018-11-02T19:43:48.467Z,7.70
2018-11-02T19:46:16.603Z,8.03
2018-11-02T19:48:45.710Z,7.90
2018-11-02T19:51:13.955Z,8.33
2018-11-02T19:53:42.181Z,7.73
2018-11-02T19:56:10.150Z,8.30
2018-11-02T19:58:38.604Z,7.93
2018-11-02T20:01:07.388Z,8.00
2018-11-02T20:03:36.156Z,7.70
2018-11-02T20:06:04.159Z,8.87
2018-11-02T20:08:32.960Z,9.10
2018-11-02T20:11:01.007Z,9.43
2018-11-02T20:13:29.181Z,8.27
2018-11-02T20:15:57.320Z,7.60
2018-11-02T20:18:25.456Z,8.10
2018-11-02T20:20:53.719Z,8.13
2018-11-02T20:23:21.886Z,9.27
2018-11-02T20:25:49.733Z,9.27
2018-11-02T20:28:17.844Z,9.50
2018-11-02T20:30:45.789Z,8.97
2018-11-02T20:33:14.717Z,10.73
2018-11-02T20:35:43.252Z,13.40
2018-11-02T20:38:12.675Z,15.70
2018-11-02T20:40:41.618Z,12.60
2018-11-02T20:43:09.538Z,11.97
2018-11-02T20:45:37.594Z,9.70
2018-11-02T20:48:05.917Z,9.83
2018-11-02T20:50:33.968Z,9.40
2018-11-02T20:53:02.397Z,9.60
2018-11-02T20:55:30.794Z,9.27
2018-11-02T20:57:58.690Z,11.67
2018-11-02T21:00:27.678Z,14.20
2018-11-02T21:02:56.051Z,13.20
2018-11-02T21:05:24.061Z,15.00
2018-11-02T21:07:54.484Z,14.20
2018-11-02T21:10:22.760Z,12.90
2018-11-02T21:12:51.422Z,13.00
2018-11-02T21:15:20.670Z,13.87
2018-11-02T21:17:49.308Z,13.37
2018-11-02T21:20:18.871Z,11.20
2018-11-02T21:22:47.347Z,10.27
2018-11-02T21:25:15.651Z,9.43
2018-11-02T21:27:45.332Z,20.90
2018-11-02T21:30:15.657Z,40.60
2018-11-02T21:32:44.604Z,40.47
2018-11-02T21:35:13.018Z,36.83
2018-11-02T21:37:41.099Z,34.97
2018-11-02T21:40:11.938Z,28.03
2018-11-02T21:42:40.885Z,30.50
2018-11-02T21:45:09.482Z,25.90
2018-11-02T21:47:37.613Z,27.87
2018-11-02T21:50:12.970Z,18.80
2018-11-02T21:52:41.547Z,18.40
2018-11-02T21:55:09.747Z,20.83
2018-11-02T21:57:39.110Z,18.53
2018-11-02T22:00:09.621Z,16.50
2018-11-02T22:02:38.997Z,13.30
2018-11-02T22:05:08.212Z,10.07
2018-11-02T22:07:36.299Z,9.03
2018-11-02T22:10:06.019Z,10.00
2018-11-02T22:12:34.158Z,10.00
2018-11-02T22:15:02.966Z,9.60
2018-11-02T22:17:32.433Z,8.40
2018-11-02T22:20:00.985Z,7.07
2018-11-02T22:22:29.433Z,6.37
2018-11-02T22:24:57.583Z,7.97
2018-11-02T22:27:25.794Z,8.37
2018-11-02T22:29:54.019Z,11.93
2018-11-02T22:32:22.178Z,14.10
2018-11-02T22:34:50.263Z,20.07
2018-11-02T22:37:18.438Z,18.23
2018-11-02T22:39:46.613Z,17.83
2018-11-02T22:42:15.216Z,17.07
2018-11-02T22:44:43.126Z,15.10
2018-11-02T22:47:10.891Z,13.97
2018-11-02T22:49:39.050Z,16.97
2018-11-02T22:52:06.944Z,16.53
2018-11-02T22:54:35.263Z,16.40
2018-11-02T22:57:03.339Z,17.50
2018-11-02T22:59:31.243Z,13.70
2018-11-02T23:01:59.094Z,12.20
2018-11-02T23:04:27.156Z,12.47
2018-11-02T23:06:55.088Z,11.90
2018-11-02T23:09:23.135Z,10.37
2018-11-02T23:11:51.200Z,10.57
2018-11-02T23:14:21.242Z,10.00
2018-11-02T23:16:49.085Z,9.47
2018-11-02T23:19:17.171Z,9.00
2018-11-02T23:21:45.067Z,8.93
2018-11-02T23:24:13.004Z,8.50
2018-11-02T23:26:41.137Z,7.93
2018-11-02T23:29:09.585Z,7.53
2018-11-02T23:31:38.030Z,9.37
2018-11-02T23:34:05.863Z,7.33
2018-11-02T23:36:34.409Z,8.13
2018-11-02T23:39:04.337Z,7.77
2018-11-02T23:41:32.239Z,8.10
2018-11-02T23:44:00.251Z,6.17
2018-11-02T23:46:28.174Z,6.67
2018-11-02T23:48:56.103Z,6.00
2018-11-02T23:51:24.062Z,5.93
2018-11-02T23:53:51.975Z,6.53
2018-11-02T23:56:20.069Z,6.50
2018-11-02T23:58:48.808Z,6.33
